Strona główna
METAR-TAF:

METAR-TAF

Lotnisko :

Binghamton, Nowy Jork, Stany Zjednoczone

Szerokość geograficzna: 42-12-28N, Długość geograficzna: 075-58-53W, wysokość: 496 m

Aktualna obserwacja pogody

Raport powstał 1 godzina i 2 minut temu, godzina 03:53 UTC
Wiatr 6 kt od wschodnio-północny wschód
Temperatura 21°C
Wilgotność 78%
Ciśnienie 1018 hPa
Widzialność: 16.1 km
Zachmurzenie całkowite na wysokości 5000 ft
słaby deszcz

METAR: KBGM 150353Z AUTO 06006KT 10SM -RA OVC050 21/17 A3007 RMK AO2 RAB46 SLP170 P0000 T02060167 $

czas: 00:55 (04:55 UTC)

Prognoza

Raport powstał 5 godziny i 35 minut temu, godzina 23:20 UTC
Prognoza ważna od 15 godzina 00 UTC do 15 godzina 24 UTC
Wiatr 3 kt z kierunków zmiennych
Widzialność: 10 km
Mało chmury na wysokości 9000 ft
Od 15 godzina 1600 UTC
Wiatr 6 kt od wschodnio-południowy wschód
Widzialność: 10 km
Przerywane chmury na wysokości 6000 ft

TAF: KBGM 142320Z 1500/1524 VRB03KT P6SM FEW090 FM151600 12006KT P6SM BKN060

Obserwacja i prognoza pogody dla ponad 4000 lotnisk (raport METAR i TAF).

Dostępne stacje oznaczono żółtymi i czerwonymi punktami na mapie.

Najedź kursorem aby zobaczyć nazwę stacji.

Kliknij aby zobaczyć obserwacje i prognozy pogody.

Aby zmienić mapę: kliknij na zielony przycisk z czarnym krzyżykiem, aby powiększyć; na zielony przycisk z myślnikiem, aby pomniejszyć; na zielone strzałki, aby przejść do map sąsiednich.


METAR-TAF: